Skip Navigation Links Skip Navigation Links

Current Weather

Charlevoix Muni, Charlevoix, Mich.

For information only: do not use for flight planning or navigation.
Latest weather
Observation time Sunday, May 31, 2020 7:55 AM EDT
Local time Sunday, May 31, 2020 8:18 AM EDT
Flight conditions Visual Meteorological Conditions
Winds
Wind direction West-Southwest (250°)
Wind speed 6 mph
Visibility 10 mi.
Sky condition
Ceiling unlimited
Sky clear
Temperature 47°F
Dewpoint 37°F
Altimeter 30.34 in.Hg
Derived measurements
Relative humidity 66%
Wind chill 45°F
Density altitude -468 ft.
Climate data
Remarks
Fully automated report.
Automated weather observing station with precipitation discriminator.
METAR KCVX 311155Z AUTO 25005KT 10SM CLR 09/03 A3034 RMK AO2 T00860026 10086 20026

Settings

Location code

InnerDrive.Weather 4.0.6770.0 Release CLR 4.0.30319.42000
Copyright ©2018 Inner Drive Technology. All rights reserved. Portions Copyright ©1986-2018 David Braverman.

Find weather

Site navigation


Skip Navigation Links

Place info

Page info

PayPal - The safer, easier way to pay online!

Return home.

Copyright ©2020 Inner Drive Technology. Purveyors of fine, hand-crafted computer software. Page printed 2020-05-31T12:18:19 UTC.